createdAt,value
2018-03-26T00:00:05.610Z,0.70
2018-03-26T00:02:33.349Z,0.60
2018-03-26T00:05:01.042Z,0.60
2018-03-26T00:07:28.730Z,0.60
2018-03-26T00:09:56.489Z,0.70
2018-03-26T00:12:24.171Z,0.70
2018-03-26T00:14:52.626Z,0.60
2018-03-26T00:17:20.366Z,0.60
2018-03-26T00:19:48.048Z,0.60
2018-03-26T00:22:15.734Z,0.70
2018-03-26T00:24:44.285Z,0.80
2018-03-26T00:27:12.022Z,0.80
2018-03-26T00:29:39.703Z,0.90
2018-03-26T00:32:07.479Z,1.00
2018-03-26T00:34:35.174Z,1.00
2018-03-26T00:37:02.873Z,1.00
2018-03-26T00:39:30.635Z,1.00
2018-03-26T00:41:58.332Z,0.90
2018-03-26T00:44:26.792Z,1.00
2018-03-26T00:46:54.529Z,0.90
2018-03-26T00:49:22.998Z,1.00
2018-03-26T00:51:50.680Z,0.90
2018-03-26T00:54:18.430Z,1.00
2018-03-26T00:56:46.148Z,1.00
2018-03-26T00:59:13.846Z,1.00
2018-03-26T01:01:41.590Z,1.00
2018-03-26T01:04:09.278Z,1.00
2018-03-26T01:06:36.965Z,1.00
2018-03-26T01:09:04.747Z,0.90
2018-03-26T01:11:33.202Z,0.80
2018-03-26T01:14:00.898Z,0.80
2018-03-26T01:16:28.647Z,0.80
2018-03-26T01:18:56.341Z,0.80
2018-03-26T01:21:24.033Z,0.80
2018-03-26T01:23:51.783Z,0.70
2018-03-26T01:26:19.470Z,0.70
2018-03-26T01:28:47.934Z,0.60
2018-03-26T01:31:15.674Z,0.60
2018-03-26T01:33:43.361Z,0.50
2018-03-26T01:36:11.046Z,0.40
2018-03-26T01:38:39.565Z,0.40
2018-03-26T01:41:07.250Z,0.40
2018-03-26T01:43:34.934Z,0.40
2018-03-26T01:46:03.449Z,0.40
2018-03-26T01:48:31.140Z,0.40
2018-03-26T01:50:58.834Z,0.30
2018-03-26T01:53:27.376Z,0.30
2018-03-26T01:55:55.066Z,0.40
2018-03-26T01:58:22.761Z,0.40
2018-03-26T02:00:50.511Z,0.50
2018-03-26T02:03:18.201Z,0.60
2018-03-26T02:05:45.910Z,0.60
2018-03-26T02:08:14.422Z,0.70
2018-03-26T02:10:42.113Z,0.70
2018-03-26T02:13:09.825Z,0.80
2018-03-26T02:15:38.329Z,1.00
2018-03-26T02:18:06.029Z,1.00
2018-03-26T02:20:33.719Z,1.10
2018-03-26T02:23:02.228Z,1.20
2018-03-26T02:25:29.915Z,1.20
2018-03-26T02:27:57.601Z,1.20
2018-03-26T02:30:25.348Z,1.20
2018-03-26T02:32:53.041Z,1.10
2018-03-26T02:35:21.502Z,1.00
2018-03-26T02:37:49.249Z,0.90
2018-03-26T02:40:16.943Z,1.00
2018-03-26T02:42:44.642Z,0.90
2018-03-26T02:45:12.381Z,0.90
2018-03-26T02:47:40.081Z,0.90
2018-03-26T02:50:07.784Z,0.80
2018-03-26T02:52:36.285Z,0.90
2018-03-26T02:55:03.998Z,0.90
2018-03-26T02:57:31.688Z,1.00
2018-03-26T03:00:00.199Z,1.10
2018-03-26T03:02:27.893Z,1.10
2018-03-26T03:04:55.586Z,1.20
2018-03-26T03:07:24.105Z,1.30
2018-03-26T03:09:51.797Z,1.40
2018-03-26T03:12:19.487Z,1.50
2018-03-26T03:14:48.002Z,1.40
2018-03-26T03:17:15.709Z,1.40
2018-03-26T03:19:44.158Z,1.40
2018-03-26T03:22:11.894Z,1.40
2018-03-26T03:24:39.578Z,1.50
2018-03-26T03:27:07.286Z,1.60
2018-03-26T03:29:35.795Z,1.60
2018-03-26T03:32:03.506Z,1.60
2018-03-26T03:34:31.965Z,1.80
2018-03-26T03:36:59.726Z,1.70
2018-03-26T03:39:27.411Z,1.70
2018-03-26T03:41:55.920Z,1.70
2018-03-26T03:44:23.661Z,1.70
2018-03-26T03:46:52.115Z,1.90
2018-03-26T03:49:19.798Z,1.80
2018-03-26T03:51:47.575Z,1.90
2018-03-26T03:54:15.294Z,1.70
2018-03-26T03:56:42.989Z,1.80
2018-03-26T03:59:10.735Z,1.80
2018-03-26T04:01:39.189Z,2.10
2018-03-26T04:04:06.883Z,2.00
2018-03-26T04:06:34.675Z,2.10
2018-03-26T04:09:02.366Z,2.20
2018-03-26T04:11:30.070Z,2.20
2018-03-26T04:13:58.594Z,2.30
2018-03-26T04:16:26.281Z,2.30
2018-03-26T04:18:53.976Z,2.30
2018-03-26T04:21:21.721Z,2.20
2018-03-26T04:23:50.169Z,2.30
2018-03-26T04:26:17.852Z,2.30
2018-03-26T04:28:46.381Z,2.30
2018-03-26T04:31:14.068Z,2.30
2018-03-26T04:33:41.758Z,2.30
2018-03-26T04:36:10.283Z,2.30
2018-03-26T04:38:37.976Z,2.30
2018-03-26T04:41:05.667Z,2.40
2018-03-26T04:43:33.462Z,2.40
2018-03-26T04:46:01.159Z,2.50
2018-03-26T04:48:28.871Z,2.40
2018-03-26T04:50:56.609Z,2.30
2018-03-26T04:53:25.065Z,2.50
2018-03-26T04:55:52.771Z,2.50
2018-03-26T04:58:20.518Z,2.50
2018-03-26T05:00:48.215Z,2.60
2018-03-26T05:03:15.917Z,2.60
2018-03-26T05:05:44.431Z,2.70
2018-03-26T05:08:12.130Z,2.70
2018-03-26T05:10:39.823Z,2.80
2018-03-26T05:13:08.338Z,2.80
2018-03-26T05:15:36.032Z,2.70
2018-03-26T05:18:03.740Z,2.80
2018-03-26T05:20:31.495Z,2.90
2018-03-26T05:22:59.181Z,2.90
2018-03-26T05:25:26.874Z,3.00
2018-03-26T05:27:54.621Z,3.10
2018-03-26T05:30:22.310Z,3.20
2018-03-26T05:32:50.001Z,3.20
2018-03-26T05:35:17.845Z,3.30
2018-03-26T05:37:46.301Z,3.40
2018-03-26T05:40:13.994Z,3.40
2018-03-26T05:42:42.502Z,3.30
2018-03-26T05:45:10.229Z,3.30
2018-03-26T05:47:38.695Z,3.40
2018-03-26T05:50:06.445Z,3.40
2018-03-26T05:52:34.134Z,3.50
2018-03-26T05:55:02.608Z,3.60
2018-03-26T05:57:31.118Z,3.60
2018-03-26T05:59:58.806Z,3.60
2018-03-26T06:02:26.521Z,3.70
2018-03-26T06:04:54.330Z,3.70
2018-03-26T06:07:22.024Z,3.70
2018-03-26T06:09:50.480Z,3.80
2018-03-26T06:12:18.219Z,3.80
2018-03-26T06:14:45.907Z,3.90
2018-03-26T06:17:16.526Z,4.00
2018-03-26T06:19:44.273Z,4.00
2018-03-26T06:22:11.991Z,4.10
2018-03-26T06:24:39.703Z,4.20
2018-03-26T06:27:08.262Z,4.20
2018-03-26T06:29:36.026Z,4.10
2018-03-26T06:32:03.737Z,4.20
2018-03-26T06:34:32.269Z,4.10
2018-03-26T06:50:23.329Z,4.20
2018-03-26T06:52:51.023Z,4.20
2018-03-26T06:55:18.717Z,4.10
2018-03-26T06:57:47.226Z,4.10
2018-03-26T07:00:14.938Z,4.10
2018-03-26T07:02:42.630Z,4.30
2018-03-26T07:05:10.377Z,4.40
2018-03-26T07:07:38.829Z,4.50
2018-03-26T07:10:06.518Z,4.50
2018-03-26T07:12:35.033Z,4.40
2018-03-26T07:15:02.724Z,4.40
2018-03-26T07:17:30.426Z,4.50
2018-03-26T07:19:58.936Z,4.50
2018-03-26T07:22:26.629Z,4.40
2018-03-26T07:24:55.085Z,4.90
2018-03-26T07:27:22.826Z,4.90
2018-03-26T07:29:59.313Z,5.10
2018-03-26T07:32:27.040Z,5.40
2018-03-26T07:34:55.479Z,5.90
2018-03-26T07:37:23.160Z,5.90
2018-03-26T07:39:51.655Z,6.50
2018-03-26T07:42:19.327Z,6.40
2018-03-26T07:47:43.412Z,6.90
2018-03-26T07:50:11.108Z,6.90
2018-03-26T07:52:38.790Z,7.00
2018-03-26T07:55:06.526Z,7.30
2018-03-26T07:57:34.203Z,7.60
2018-03-26T08:00:01.883Z,8.00
2018-03-26T08:02:29.619Z,8.30
2018-03-26T08:04:57.304Z,8.40
2018-03-26T08:07:24.979Z,8.50
2018-03-26T08:09:53.492Z,8.80
2018-03-26T08:12:21.173Z,8.80
2018-03-26T08:14:48.852Z,8.80
2018-03-26T08:17:16.622Z,9.20
2018-03-26T08:19:45.073Z,9.80
2018-03-26T08:22:12.782Z,9.80
2018-03-26T08:24:41.292Z,10.50
2018-03-26T08:27:08.981Z,10.40
2018-03-26T08:29:36.661Z,10.50
2018-03-26T08:32:04.573Z,10.70
2018-03-26T08:34:32.263Z,10.70
2018-03-26T08:36:59.972Z,10.80
2018-03-26T08:39:28.474Z,10.60
2018-03-26T08:41:56.161Z,10.60
2018-03-26T08:44:23.839Z,10.70
2018-03-26T08:46:51.568Z,10.70
2018-03-26T08:49:19.251Z,10.80
2018-03-26T08:51:46.937Z,10.90
2018-03-26T08:54:15.477Z,11.20
2018-03-26T08:56:43.154Z,11.10
2018-03-26T08:59:10.843Z,11.30
2018-03-26T09:01:39.348Z,11.30
2018-03-26T09:04:07.039Z,11.20
2018-03-26T09:06:34.713Z,11.40
2018-03-26T09:09:02.458Z,11.90
2018-03-26T09:11:30.144Z,12.20
2018-03-26T09:13:57.825Z,12.70
2018-03-26T09:16:26.346Z,13.80
2018-03-26T09:18:54.033Z,13.80
2018-03-26T09:21:21.716Z,14.60
2018-03-26T09:23:50.237Z,15.10
2018-03-26T09:26:18.194Z,15.10
2018-03-26T09:28:45.872Z,15.20
2018-03-26T09:31:13.670Z,15.30
2018-03-26T09:33:42.314Z,15.10
2018-03-26T09:36:10.078Z,15.10
2018-03-26T09:38:38.716Z,15.00
2018-03-26T09:41:07.164Z,14.90
2018-03-26T09:43:34.868Z,14.90
2018-03-26T09:46:02.646Z,14.40
2018-03-26T09:48:30.349Z,14.60
2018-03-26T09:50:58.048Z,14.70
2018-03-26T09:53:25.811Z,14.70
2018-03-26T09:55:53.503Z,14.30
2018-03-26T09:58:21.204Z,13.70
2018-03-26T10:00:48.950Z,13.00
2018-03-26T10:03:16.659Z,12.90
2018-03-26T10:05:44.419Z,12.60
2018-03-26T10:08:12.238Z,12.40
2018-03-26T10:10:39.944Z,12.20
2018-03-26T10:13:07.628Z,12.40
2018-03-26T10:15:35.380Z,12.40
2018-03-26T10:18:03.067Z,12.60
2018-03-26T10:20:30.792Z,12.70
2018-03-26T10:22:58.532Z,12.60
2018-03-26T10:25:26.220Z,12.20
2018-03-26T10:27:53.924Z,11.80
2018-03-26T10:30:21.714Z,11.50
2018-03-26T10:32:50.200Z,10.90
2018-03-26T10:35:18.653Z,10.60
2018-03-26T10:37:46.429Z,10.60
2018-03-26T10:40:14.923Z,10.50
2018-03-26T10:42:42.619Z,10.50
2018-03-26T10:45:10.362Z,10.50
2018-03-26T10:47:38.109Z,10.40
2018-03-26T10:50:05.846Z,10.50
2018-03-26T10:52:34.373Z,10.70
2018-03-26T10:55:02.208Z,10.70
2018-03-26T10:57:30.014Z,10.90
2018-03-26T10:59:58.127Z,11.20
2018-03-26T11:02:26.706Z,11.60
2018-03-26T11:04:55.290Z,11.60
2018-03-26T11:07:23.965Z,11.60
2018-03-26T11:09:52.578Z,11.70
2018-03-26T11:12:20.386Z,11.70
2018-03-26T11:14:48.279Z,11.90
2018-03-26T11:17:16.873Z,12.10
2018-03-26T11:19:44.684Z,12.10
2018-03-26T11:22:12.560Z,12.10
2018-03-26T11:24:40.382Z,12.20
2018-03-26T11:27:08.217Z,12.20
2018-03-26T11:29:36.859Z,12.20
2018-03-26T11:32:04.656Z,12.20
2018-03-26T11:34:33.230Z,11.80
2018-03-26T11:37:02.344Z,11.50
2018-03-26T11:39:30.146Z,11.50
2018-03-26T11:41:57.949Z,11.00
2018-03-26T11:44:26.607Z,10.50
2018-03-26T11:46:54.430Z,10.50
2018-03-26T11:49:22.256Z,10.20
2018-03-26T11:51:50.893Z,10.00
2018-03-26T11:54:18.688Z,10.00
2018-03-26T11:56:46.491Z,9.90
2018-03-26T11:59:14.375Z,9.90
2018-03-26T12:01:42.175Z,9.70
2018-03-26T12:04:09.984Z,9.50
2018-03-26T12:06:37.836Z,9.60
2018-03-26T12:09:05.646Z,9.60
2018-03-26T12:11:33.469Z,9.70
2018-03-26T12:14:01.323Z,9.70
2018-03-26T12:16:29.885Z,9.70
2018-03-26T12:18:58.550Z,9.70
2018-03-26T12:21:26.421Z,9.70
2018-03-26T12:24:06.039Z,9.80
2018-03-26T12:26:33.916Z,9.90
2018-03-26T12:29:13.553Z,9.90
2018-03-26T12:31:41.407Z,10.00
2018-03-26T12:34:20.953Z,10.20
2018-03-26T12:36:48.815Z,10.30
2018-03-26T12:39:16.611Z,10.40
2018-03-26T12:41:45.203Z,10.50
2018-03-26T12:44:19.725Z,10.40
2018-03-26T12:46:47.550Z,10.50
2018-03-26T12:49:15.364Z,10.70
2018-03-26T12:51:55.107Z,10.90
2018-03-26T12:54:22.918Z,11.10
2018-03-26T12:57:02.796Z,11.10
2018-03-26T12:59:31.364Z,10.80
2018-03-26T13:02:10.915Z,10.80
2018-03-26T13:04:39.499Z,10.60
2018-03-26T13:07:08.068Z,10.50
2018-03-26T13:09:36.704Z,10.50
2018-03-26T13:12:04.504Z,10.50
2018-03-26T13:14:32.309Z,10.50
2018-03-26T13:17:00.179Z,10.30
2018-03-26T13:19:27.989Z,10.30
2018-03-26T13:21:55.781Z,10.30
2018-03-26T13:24:23.672Z,10.20
2018-03-26T13:26:51.482Z,10.10
2018-03-26T13:29:19.287Z,10.00
2018-03-26T13:31:47.143Z,10.00
2018-03-26T13:34:14.950Z,10.00
2018-03-26T13:36:42.757Z,10.10
2018-03-26T13:39:10.639Z,10.30
2018-03-26T13:41:38.451Z,10.40
2018-03-26T13:44:06.258Z,10.30
2018-03-26T13:46:34.179Z,10.40
2018-03-26T13:49:01.995Z,10.30
2018-03-26T13:51:29.797Z,10.40
2018-03-26T13:53:57.694Z,10.50
2018-03-26T13:56:26.274Z,10.70
2018-03-26T13:58:54.847Z,10.80
2018-03-26T14:01:22.735Z,10.80
2018-03-26T14:03:50.527Z,11.00
2018-03-26T14:06:18.353Z,11.10
2018-03-26T14:08:58.875Z,11.10
2018-03-26T14:11:38.493Z,11.10
2018-03-26T14:14:18.820Z,11.10
2018-03-26T14:16:58.451Z,11.10
2018-03-26T14:19:26.323Z,11.30
2018-03-26T14:21:54.138Z,11.50
2018-03-26T14:24:21.954Z,11.40
2018-03-26T14:26:49.825Z,11.50
2018-03-26T14:29:17.620Z,11.30
2018-03-26T14:31:45.418Z,11.10
2018-03-26T14:34:14.080Z,11.00
2018-03-26T14:36:41.892Z,11.00
2018-03-26T14:39:09.689Z,10.90
2018-03-26T14:41:37.674Z,10.90
2018-03-26T14:44:05.481Z,10.90
2018-03-26T14:46:33.284Z,11.10
2018-03-26T14:49:01.300Z,11.20
2018-03-26T14:51:29.864Z,11.00
2018-03-26T14:53:58.457Z,10.90
2018-03-26T14:56:27.088Z,10.70
2018-03-26T14:58:54.896Z,10.70
2018-03-26T15:01:23.452Z,10.20
2018-03-26T15:03:56.896Z,10.20
2018-03-26T15:06:24.687Z,10.00
2018-03-26T15:08:52.508Z,9.80
2018-03-26T15:11:21.125Z,9.60
2018-03-26T15:13:48.926Z,9.60
2018-03-26T15:16:16.737Z,9.50
2018-03-26T15:18:44.596Z,9.50
2018-03-26T15:21:12.395Z,9.40
2018-03-26T15:23:40.992Z,9.20
2018-03-26T15:26:08.851Z,9.20
2018-03-26T15:28:36.639Z,9.20
2018-03-26T15:31:05.201Z,9.00
2018-03-26T15:33:33.097Z,9.00
2018-03-26T15:36:00.954Z,9.00
2018-03-26T15:38:29.560Z,8.90
2018-03-26T15:40:57.645Z,8.80
2018-03-26T15:43:25.451Z,8.80
2018-03-26T15:45:54.027Z,8.70
2018-03-26T15:48:21.951Z,8.70
2018-03-26T15:50:49.771Z,8.60
2018-03-26T15:53:18.347Z,8.60
2018-03-26T15:55:46.983Z,8.60
2018-03-26T15:58:14.775Z,8.60
2018-03-26T16:00:42.656Z,8.50
2018-03-26T16:03:16.337Z,8.50
2018-03-26T16:05:44.185Z,8.40
2018-03-26T16:08:12.016Z,8.40
2018-03-26T16:10:42.780Z,8.40
2018-03-26T16:13:10.608Z,8.40
2018-03-26T16:15:38.412Z,8.30
2018-03-26T16:18:07.039Z,8.30
2018-03-26T16:20:35.618Z,8.20
2018-03-26T16:23:04.184Z,8.20
2018-03-26T16:25:32.090Z,8.20
2018-03-26T16:27:59.876Z,8.10
2018-03-26T16:30:27.667Z,8.10
2018-03-26T16:32:55.523Z,8.00
2018-03-26T16:35:23.326Z,8.10
2018-03-26T16:37:51.141Z,8.10
2018-03-26T16:40:19.024Z,8.00
2018-03-26T16:42:46.830Z,8.10
2018-03-26T16:45:15.094Z,8.10
2018-03-26T16:47:42.961Z,8.00
2018-03-26T16:50:10.771Z,8.10
2018-03-26T16:52:38.623Z,8.00
2018-03-26T16:55:06.488Z,8.00
2018-03-26T16:57:34.304Z,7.90
2018-03-26T17:00:02.123Z,7.80
2018-03-26T17:02:29.999Z,7.80
2018-03-26T17:04:57.786Z,7.70
2018-03-26T17:07:26.347Z,7.70
2018-03-26T17:09:54.229Z,7.70
2018-03-26T17:12:22.801Z,7.60
2018-03-26T17:14:51.360Z,7.60
2018-03-26T17:34:41.142Z,7.70
2018-03-26T17:37:08.975Z,7.70
2018-03-26T17:39:37.580Z,7.70
2018-03-26T17:42:06.267Z,7.60
2018-03-26T17:44:34.084Z,7.60
2018-03-26T17:47:01.876Z,7.60
2018-03-26T17:49:29.747Z,7.50
2018-03-26T17:51:57.550Z,7.50
2018-03-26T17:54:25.396Z,7.50
2018-03-26T17:56:54.021Z,7.50
2018-03-26T17:59:21.847Z,7.50
2018-03-26T18:01:50.869Z,7.50
2018-03-26T18:04:18.736Z,7.50
2018-03-26T18:06:46.559Z,7.50
2018-03-26T18:09:15.144Z,7.40
2018-03-26T18:11:43.807Z,7.40
2018-03-26T18:14:11.601Z,7.40
2018-03-26T18:16:39.730Z,7.30
2018-03-26T18:19:07.613Z,7.30
2018-03-26T18:21:36.183Z,7.30
2018-03-26T18:24:03.985Z,7.30
2018-03-26T18:26:31.855Z,7.30
2018-03-26T18:28:59.684Z,7.30
2018-03-26T18:31:27.492Z,7.30
2018-03-26T18:33:55.364Z,7.30
2018-03-26T18:36:23.171Z,7.30
2018-03-26T18:38:50.970Z,7.20
2018-03-26T18:41:18.844Z,7.20
2018-03-26T18:43:46.640Z,7.20
2018-03-26T18:46:14.459Z,7.20
2018-03-26T18:48:43.137Z,7.20
2018-03-26T18:51:10.953Z,7.10
2018-03-26T18:53:38.749Z,7.20
2018-03-26T18:56:07.380Z,7.20
2018-03-26T18:58:35.176Z,7.20
2018-03-26T19:01:02.969Z,7.20
2018-03-26T19:03:30.848Z,7.10
2018-03-26T19:05:58.652Z,7.20
2018-03-26T19:08:26.472Z,7.10
2018-03-26T19:10:54.324Z,7.00
2018-03-26T19:13:22.124Z,7.00
2018-03-26T19:15:49.926Z,7.00
2018-03-26T19:18:18.561Z,7.00
2018-03-26T19:20:46.365Z,7.00
2018-03-26T19:23:14.169Z,7.00
2018-03-26T19:25:42.079Z,7.00
2018-03-26T19:28:10.194Z,6.90
2018-03-26T19:30:38.072Z,7.00
2018-03-26T19:33:05.968Z,7.00
2018-03-26T19:35:33.776Z,6.90
2018-03-26T19:38:01.615Z,6.90
2018-03-26T19:40:29.563Z,7.00
2018-03-26T19:42:57.352Z,6.90
2018-03-26T19:45:25.971Z,6.90
2018-03-26T19:47:53.845Z,6.90
2018-03-26T19:50:21.645Z,6.90
2018-03-26T19:52:49.461Z,6.90
2018-03-26T19:55:17.364Z,6.90
2018-03-26T19:57:45.164Z,6.90
2018-03-26T20:00:13.718Z,6.90
2018-03-26T20:02:41.610Z,6.80
2018-03-26T20:05:10.173Z,6.80
2018-03-26T20:07:38.748Z,6.80
2018-03-26T20:10:06.658Z,6.80
2018-03-26T20:12:34.475Z,6.80
2018-03-26T20:15:02.290Z,6.80
2018-03-26T20:17:30.173Z,6.80
2018-03-26T20:19:58.729Z,6.80
2018-03-26T20:22:26.525Z,6.80
2018-03-26T20:24:55.157Z,6.60
2018-03-26T20:27:23.082Z,6.60
2018-03-26T20:29:50.895Z,6.60
2018-03-26T20:32:20.722Z,6.60
2018-03-26T20:34:48.526Z,6.50
2018-03-26T20:37:17.107Z,6.50
2018-03-26T20:39:44.970Z,6.50
2018-03-26T20:42:12.990Z,6.50
2018-03-26T20:44:40.790Z,6.50
2018-03-26T20:47:08.657Z,6.50
2018-03-26T20:49:36.455Z,6.50
2018-03-26T20:52:04.313Z,6.50
2018-03-26T20:54:32.949Z,6.40
2018-03-26T20:57:00.747Z,6.40
2018-03-26T20:59:28.532Z,6.40
2018-03-26T21:01:56.421Z,6.40
2018-03-26T21:04:24.221Z,6.30
2018-03-26T21:06:52.045Z,6.30
2018-03-26T21:09:19.938Z,6.30
2018-03-26T21:11:47.732Z,6.30
2018-03-26T21:14:16.289Z,6.20
2018-03-26T21:16:44.228Z,6.10
2018-03-26T21:19:12.041Z,6.10
2018-03-26T21:21:40.608Z,6.00
2018-03-26T21:24:08.529Z,6.00
2018-03-26T21:26:36.447Z,6.00
2018-03-26T21:29:05.169Z,5.90
2018-03-26T21:31:33.223Z,5.90
2018-03-26T21:34:01.022Z,5.80
2018-03-26T21:36:28.819Z,5.70
2018-03-26T21:38:56.681Z,5.70
2018-03-26T21:41:24.555Z,5.60
2018-03-26T21:43:52.357Z,5.50
2018-03-26T21:46:20.241Z,5.50
2018-03-26T21:48:48.081Z,5.50
2018-03-26T21:51:15.923Z,5.50
2018-03-26T21:53:44.546Z,5.50
2018-03-26T21:56:12.386Z,5.40
2018-03-26T21:58:40.191Z,5.30
2018-03-26T22:01:08.091Z,5.10
2018-03-26T22:03:36.654Z,5.00
2018-03-26T22:06:04.476Z,5.00
2018-03-26T22:08:32.361Z,5.10
2018-03-26T22:11:00.156Z,5.00
2018-03-26T22:13:27.955Z,5.00
2018-03-26T22:15:55.817Z,5.00
2018-03-26T22:18:23.636Z,4.90
2018-03-26T22:20:51.483Z,4.80
2018-03-26T22:23:19.349Z,4.80
2018-03-26T22:25:47.164Z,4.80
2018-03-26T22:28:14.951Z,4.80
2018-03-26T22:30:42.824Z,4.80
2018-03-26T22:33:10.615Z,4.80
2018-03-26T22:35:38.415Z,4.80
2018-03-26T22:38:06.288Z,4.80
2018-03-26T22:40:34.079Z,4.70
2018-03-26T22:43:01.922Z,4.60
2018-03-26T22:45:29.817Z,4.60
2018-03-26T22:47:57.617Z,4.60
2018-03-26T22:50:26.178Z,4.60
2018-03-26T22:52:54.052Z,4.60
2018-03-26T22:55:21.860Z,4.60
2018-03-26T22:57:49.667Z,4.60
2018-03-26T23:00:17.542Z,4.60
2018-03-26T23:02:46.116Z,4.60
2018-03-26T23:05:13.908Z,4.60
2018-03-26T23:07:41.771Z,4.60
2018-03-26T23:10:09.580Z,4.60
2018-03-26T23:12:37.373Z,4.60
2018-03-26T23:15:06.012Z,4.60
2018-03-26T23:17:33.810Z,4.60
2018-03-26T23:20:01.621Z,4.60
2018-03-26T23:22:41.368Z,4.60
2018-03-26T23:25:09.160Z,4.50
2018-03-26T23:27:36.947Z,4.50
2018-03-26T23:30:04.801Z,4.50
2018-03-26T23:32:32.598Z,4.60
2018-03-26T23:35:00.399Z,4.60
2018-03-26T23:37:29.044Z,4.60
2018-03-26T23:39:56.839Z,4.60
2018-03-26T23:42:24.630Z,4.60
2018-03-26T23:44:52.487Z,4.60
2018-03-26T23:47:20.295Z,4.60
2018-03-26T23:49:48.089Z,4.60
2018-03-26T23:52:15.952Z,4.60
2018-03-26T23:54:43.744Z,4.60
2018-03-26T23:57:11.545Z,4.60
2018-03-26T23:59:39.406Z,4.60
